Time;durP1;ratioP1;P1;durP2;ratioP2;P2;SDS_P1;SDS_P2;PMS_P1;PMS_P2;Temp;Humidity;BMP_temperature;BMP_pressure;BME280_temperature;BME280_humidity;BME280_pressure;Samples;Min_cycle;Max_cycle;Signal;HPM_P1;HPM_P2
2021/05/18 00:02:17;;;;;;;2.30;2.10;;;11.00;99.90;;;;;;5093063;28;20414;-76
2021/05/18 00:04:43;;;;;;;2.50;2.30;;;11.00;99.90;;;;;;5092194;28;20593;-76
2021/05/18 00:07:14;;;;;;;2.60;2.40;;;11.10;99.90;;;;;;5092680;28;20240;-76
2021/05/18 00:12:25;;;;;;;2.03;1.83;;;11.10;99.90;;;;;;5092761;28;20425;-76
2021/05/18 00:14:50;;;;;;;2.87;2.67;;;11.10;99.90;;;;;;5092922;28;20415;-76
2021/05/18 00:17:16;;;;;;;4.20;2.30;;;11.10;99.90;;;;;;5092515;28;20408;-76
2021/05/18 00:19:41;;;;;;;3.13;2.33;;;11.00;99.90;;;;;;5092786;28;20197;-77
2021/05/18 00:22:07;;;;;;;2.83;2.33;;;10.80;99.90;;;;;;5091494;28;20227;-77
2021/05/18 00:24:33;;;;;;;3.60;2.17;;;10.90;99.90;;;;;;5093059;28;20173;-77
2021/05/18 00:27:02;;;;;;;2.30;2.10;;;10.90;99.90;;;;;;5091201;28;20277;-76
2021/05/18 00:29:28;;;;;;;3.43;2.10;;;11.00;99.90;;;;;;5092674;28;20204;-76
2021/05/18 00:31:53;;;;;;;2.43;2.20;;;11.00;99.90;;;;;;5092292;28;20765;-76
2021/05/18 00:34:19;;;;;;;3.43;2.47;;;10.90;99.90;;;;;;5092138;28;20176;-76
2021/05/18 00:36:45;;;;;;;2.90;1.80;;;10.80;99.90;;;;;;5090272;28;20787;-76
2021/05/18 00:39:10;;;;;;;3.30;2.20;;;10.70;99.90;;;;;;5092085;28;20197;-76
2021/05/18 00:41:36;;;;;;;2.23;1.93;;;10.70;99.90;;;;;;5092297;28;20278;-76
2021/05/18 00:44:04;;;;;;;2.60;2.40;;;10.70;99.90;;;;;;5092517;28;20181;-76
2021/05/18 00:46:29;;;;;;;5.13;2.30;;;10.60;99.90;;;;;;5076532;28;20545;-76
2021/05/18 00:48:58;;;;;;;1.90;1.80;;;10.70;99.90;;;;;;5072005;28;20525;-76
2021/05/18 00:51:25;;;;;;;3.00;2.10;;;10.80;99.90;;;;;;5071689;28;20178;-76
2021/05/18 00:53:52;;;;;;;2.20;2.00;;;10.60;99.90;;;;;;5071972;28;20775;-76
2021/05/18 00:59:04;;;;;;;2.47;2.20;;;10.60;99.90;;;;;;5071741;28;20884;-76
2021/05/18 01:01:31;;;;;;;4.70;2.20;;;10.50;99.90;;;;;;5090232;28;20415;-76
2021/05/18 01:03:56;;;;;;;5.03;2.50;;;10.60;99.90;;;;;;5091978;28;20774;-76
2021/05/18 01:09:10;;;;;;;2.10;1.90;;;10.60;99.90;;;;;;5104834;28;20193;-76
2021/05/18 01:11:45;;;;;;;2.60;1.87;;;10.50;99.90;;;;;;5112140;28;20399;-76
2021/05/18 01:14:17;;;;;;;3.50;3.20;;;10.70;99.90;;;;;;5076314;28;20419;-76
2021/05/18 01:16:51;;;;;;;2.80;2.10;;;10.50;99.90;;;;;;5071241;28;20408;-76
2021/05/18 01:19:19;;;;;;;3.30;1.53;;;10.60;99.90;;;;;;5071356;28;20428;-76
2021/05/18 01:21:45;;;;;;;1.63;1.53;;;10.70;99.90;;;;;;5073433;28;20416;-76
2021/05/18 01:24:15;;;;;;;1.77;1.67;;;10.70;99.90;;;;;;5072215;28;20483;-75
2021/05/18 01:26:40;;;;;;;2.10;1.80;;;10.60;99.90;;;;;;5071066;28;20194;-76
2021/05/18 01:29:08;;;;;;;2.10;1.90;;;10.60;99.90;;;;;;5071286;28;20459;-76
2021/05/18 01:31:35;;;;;;;3.40;1.73;;;10.60;99.90;;;;;;5071068;28;20621;-76
2021/05/18 01:34:03;;;;;;;2.10;1.70;;;10.60;99.90;;;;;;5071413;28;20888;-75
2021/05/18 01:36:31;;;;;;;5.67;1.80;;;10.60;99.90;;;;;;5070923;28;20988;-75
2021/05/18 01:39:26;;;;;;;2.50;2.17;;;10.60;99.90;;;;;;5070994;28;20432;-75
2021/05/18 01:44:36;;;;;;;2.50;2.30;;;10.70;99.90;;;;;;5077000;28;20470;-75
2021/05/18 01:47:03;;;;;;;2.10;1.90;;;10.60;99.90;;;;;;5102344;28;20491;-75
2021/05/18 01:49:29;;;;;;;2.20;1.50;;;10.50;99.90;;;;;;5111414;28;20200;-75
2021/05/18 01:51:57;;;;;;;1.70;1.50;;;10.50;99.90;;;;;;5111558;28;20834;-76
2021/05/18 01:54:29;;;;;;;1.90;1.77;;;10.40;99.90;;;;;;5111273;28;20457;-75
2021/05/18 01:59:27;;;;;;;2.23;2.03;;;10.40;99.90;;;;;;5111544;28;20521;-76
2021/05/18 02:01:57;;;;;;;2.30;2.10;;;10.30;99.90;;;;;;5111421;28;20418;-76
2021/05/18 02:04:24;;;;;;;2.23;2.03;;;10.30;99.90;;;;;;5111174;28;20498;-75
2021/05/18 02:06:50;;;;;;;1.70;1.50;;;10.30;99.90;;;;;;5111188;28;20458;-75
2021/05/18 02:09:17;;;;;;;2.47;1.90;;;10.20;99.90;;;;;;5111270;28;20426;-74
2021/05/18 02:11:43;;;;;;;1.93;1.80;;;10.10;99.90;;;;;;5111277;28;20403;-74
2021/05/18 02:14:14;;;;;;;2.27;2.07;;;10.00;99.90;;;;;;5111359;28;20410;-74
2021/05/18 02:16:41;;;;;;;2.50;2.30;;;10.00;99.90;;;;;;5110943;28;20246;-74
2021/05/18 02:19:24;;;;;;;4.10;1.97;;;10.00;99.90;;;;;;5111206;28;20419;-74
2021/05/18 02:22:04;;;;;;;2.60;2.40;;;10.00;99.90;;;;;;5111285;28;20480;-74
2021/05/18 02:25:01;;;;;;;2.03;1.80;;;9.90;99.90;;;;;;5111198;28;20784;-74
2021/05/18 02:27:28;;;;;;;2.70;2.50;;;9.90;99.90;;;;;;5110986;28;20404;-74
2021/05/18 02:29:54;;;;;;;2.20;2.10;;;10.00;99.90;;;;;;5111425;28;20411;-75
2021/05/18 02:32:22;;;;;;;4.50;3.00;;;10.00;99.90;;;;;;5111051;28;20396;-75
2021/05/18 02:34:48;;;;;;;2.37;2.17;;;10.00;99.90;;;;;;5111030;28;20152;-75
2021/05/18 02:37:14;;;;;;;2.10;1.90;;;10.00;99.90;;;;;;5110787;28;20391;-75
2021/05/18 02:39:39;;;;;;;3.00;2.50;;;10.00;99.90;;;;;;5110815;28;20414;-75
2021/05/18 02:42:05;;;;;;;2.70;2.50;;;10.00;99.90;;;;;;5110891;28;21039;-75
2021/05/18 02:49:43;;;;;;;3.10;2.87;;;9.90;99.90;;;;;;5111396;28;20416;-75
2021/05/18 02:52:09;;;;;;;3.93;2.90;;;9.90;99.90;;;;;;5110738;28;20407;-75
2021/05/18 02:54:34;;;;;;;3.73;2.40;;;9.90;99.90;;;;;;5110775;28;20181;-75
2021/05/18 02:57:03;;;;;;;2.80;2.53;;;10.00;99.90;;;;;;5110746;28;20515;-75
2021/05/18 02:59:29;;;;;;;2.43;2.23;;;10.00;99.90;;;;;;5113203;28;20241;-75
2021/05/18 03:01:58;;;;;;;2.60;2.40;;;9.90;99.90;;;;;;5114385;28;20442;-75
2021/05/18 03:04:24;;;;;;;2.70;2.20;;;9.90;99.90;;;;;;5114867;27;20624;-75
2021/05/18 03:06:50;;;;;;;1.97;1.87;;;9.80;99.90;;;;;;5114239;28;20810;-75
2021/05/18 03:09:17;;;;;;;2.20;2.00;;;9.80;99.90;;;;;;5114448;28;20434;-75
2021/05/18 03:11:46;;;;;;;2.90;2.60;;;9.80;99.90;;;;;;5114418;28;20410;-74
2021/05/18 03:14:13;;;;;;;2.20;2.00;;;9.80;99.90;;;;;;5114534;28;20398;-74
2021/05/18 03:16:40;;;;;;;2.13;1.93;;;9.70;99.90;;;;;;5113966;28;20482;-74
2021/05/18 03:19:07;;;;;;;2.60;2.40;;;9.70;99.90;;;;;;5114390;28;20989;-74
2021/05/18 03:21:33;;;;;;;2.33;2.13;;;9.80;99.90;;;;;;5114312;28;20436;-74
2021/05/18 03:23:58;;;;;;;2.83;2.27;;;9.70;99.90;;;;;;5114279;28;20446;-75
2021/05/18 03:26:27;;;;;;;2.50;2.30;;;9.80;99.90;;;;;;5112645;28;20491;-75
2021/05/18 03:29:01;;;;;;;2.57;2.37;;;9.80;99.90;;;;;;5114155;28;20279;-76
2021/05/18 03:37:00;;;;;;;3.03;2.13;;;9.80;99.90;;;;;;5114235;28;20408;-75
2021/05/18 03:39:26;;;;;;;3.33;3.03;;;9.90;99.90;;;;;;5113812;28;20491;-76
2021/05/18 03:54:46;;;;;;;3.97;2.80;;;10.20;99.90;;;;;;5113632;28;20559;-75
2021/05/18 04:02:40;;;;;;;3.00;2.43;;;10.40;99.90;;;;;;5113922;28;20421;-75
2021/05/18 04:03:24;;;;;;;2.43;2.23;;;10.50;99.90;;;;;;5113096;28;20394;-75
2021/05/18 04:11:24;;;;;;;3.10;2.53;;;10.80;99.90;;;;;;5113188;28;20164;-75
2021/05/18 04:19:13;;;;;;;2.60;2.40;;;11.10;99.90;;;;;;5113170;28;20459;-75
2021/05/18 04:40:53;;;;;;;5.27;3.00;;;11.60;99.90;;;;;;5092914;28;20849;-75
2021/05/18 04:49:21;;;;;;;2.93;2.73;;;11.70;99.90;;;;;;5092291;28;20932;-75
2021/05/18 04:51:44;;;;;;;8.17;3.27;;;11.70;99.90;;;;;;5091905;28;20416;-75
2021/05/18 04:59:53;;;;;;;5.40;3.30;;;11.90;99.90;;;;;;5092133;28;20462;-76
2021/05/18 05:07:59;;;;;;;3.87;3.47;;;12.00;99.90;;;;;;5092028;28;20488;-76
2021/05/18 05:15:40;;;;;;;4.57;3.73;;;12.10;99.90;;;;;;5091645;28;20740;-75
2021/05/18 05:18:05;;;;;;;4.90;3.70;;;12.30;99.90;;;;;;5091135;28;20472;-75
2021/05/18 05:20:31;;;;;;;6.37;4.33;;;12.30;99.90;;;;;;5091428;28;20766;-74
2021/05/18 05:22:57;;;;;;;6.10;5.17;;;12.20;99.90;;;;;;5091165;28;20162;-75
2021/05/18 05:25:23;;;;;;;7.60;4.80;;;11.90;99.90;;;;;;5091590;28;20177;-76
2021/05/18 05:27:49;;;;;;;5.43;4.93;;;12.00;99.90;;;;;;5091016;28;20584;-75
2021/05/18 05:30:15;;;;;;;8.83;5.27;;;12.10;99.90;;;;;;5091645;28;20395;-75
2021/05/18 05:32:40;;;;;;;5.27;4.30;;;12.10;99.90;;;;;;5091230;28;20174;-75
2021/05/18 05:35:06;;;;;;;4.67;4.00;;;12.20;99.90;;;;;;5091430;28;20679;-75
2021/05/18 05:37:32;;;;;;;4.20;3.73;;;11.90;99.90;;;;;;5091201;28;20162;-76
2021/05/18 05:39:57;;;;;;;5.80;3.90;;;12.00;99.90;;;;;;5091352;28;20495;-75
2021/05/18 05:42:23;;;;;;;4.30;3.80;;;12.00;99.90;;;;;;5091084;28;20173;-75
2021/05/18 05:44:49;;;;;;;4.83;4.37;;;12.10;99.90;;;;;;5089847;28;20654;-76
2021/05/18 05:47:15;;;;;;;5.80;5.20;;;11.80;99.90;;;;;;5090950;28;20509;-76
2021/05/18 05:49:40;;;;;;;6.27;5.20;;;12.00;99.90;;;;;;5091135;28;20181;-75
2021/05/18 05:52:06;;;;;;;4.80;4.10;;;12.00;99.90;;;;;;5091007;28;20214;-75
2021/05/18 05:54:34;;;;;;;4.60;4.20;;;12.10;99.90;;;;;;5089646;28;20234;-76
2021/05/18 05:56:59;;;;;;;5.30;4.60;;;12.10;99.90;;;;;;5090935;28;20162;-76
2021/05/18 05:59:25;;;;;;;4.47;4.07;;;12.20;99.90;;;;;;5085863;28;20447;-76
2021/05/18 06:01:50;;;;;;;4.57;4.17;;;12.30;99.90;;;;;;5090793;28;20568;-76
2021/05/18 06:04:16;;;;;;;6.40;5.07;;;12.30;99.90;;;;;;5089507;28;20534;-76
2021/05/18 06:06:41;;;;;;;5.70;4.90;;;12.40;99.90;;;;;;5085335;28;20235;-76
2021/05/18 06:09:08;;;;;;;4.77;4.30;;;12.40;99.90;;;;;;5090885;28;20189;-76
2021/05/18 06:17:02;;;;;;;7.83;4.90;;;12.60;99.90;;;;;;5090736;28;20411;-74
2021/05/18 06:36:55;;;;;;;6.33;5.17;;;13.10;99.90;;;;;;5095169;28;20196;-76
2021/05/18 06:41:56;;;;;;;6.80;6.20;;;13.10;99.90;;;;;;5095383;28;20390;-77
2021/05/18 06:46:56;;;;;;;6.77;6.17;;;12.90;99.90;;;;;;5094131;28;20834;-76
2021/05/18 06:49:21;;;;;;;7.97;7.17;;;12.80;99.90;;;;;;5094584;28;20496;-76
2021/05/18 06:51:47;;;;;;;8.90;7.60;;;12.80;99.90;;;;;;5089364;28;20906;-76
2021/05/18 06:54:13;;;;;;;8.60;7.70;;;13.10;99.90;;;;;;5094239;28;20185;-76
2021/05/18 06:56:41;;;;;;;8.13;7.33;;;13.30;99.90;;;;;;5094020;28;20511;-77
2021/05/18 07:01:32;;;;;;;8.47;7.57;;;13.20;99.90;;;;;;5094869;28;20924;-79
2021/05/18 07:04:01;;;;;;;8.70;7.70;;;13.10;99.90;;;;;;5094690;28;20345;-78
2021/05/18 07:08:58;;;;;;;9.07;8.20;;;13.00;99.90;;;;;;5094780;28;20427;-78
2021/05/18 07:11:25;;;;;;;9.33;8.33;;;13.00;99.90;;;;;;5094594;28;20868;-78
2021/05/18 07:13:51;;;;;;;10.70;8.50;;;13.00;99.90;;;;;;5094479;28;20272;-78
2021/05/18 07:16:17;;;;;;;9.30;8.40;;;12.90;99.90;;;;;;5094177;28;20441;-78
2021/05/18 07:18:42;;;;;;;8.87;7.93;;;13.10;99.90;;;;;;5094739;28;20431;-78
2021/05/18 07:21:08;;;;;;;9.10;8.03;;;12.90;99.90;;;;;;5094433;28;20416;-78
2021/05/18 07:23:34;;;;;;;11.43;9.43;;;12.90;99.90;;;;;;5094138;28;20173;-77
2021/05/18 07:26:00;;;;;;;9.10;7.70;;;13.00;99.90;;;;;;5094117;28;20194;-77
2021/05/18 07:28:30;;;;;;;8.17;7.47;;;13.00;99.90;;;;;;5094024;28;21005;-77
2021/05/18 07:30:56;;;;;;;9.27;8.37;;;13.20;99.90;;;;;;5081210;28;20245;-78
2021/05/18 07:33:25;;;;;;;9.17;8.27;;;13.50;99.90;;;;;;5095367;28;20435;-78
2021/05/18 07:35:56;;;;;;;9.90;8.90;;;13.50;99.90;;;;;;5086900;28;20192;-78
2021/05/18 07:38:21;;;;;;;10.47;9.47;;;13.40;99.90;;;;;;5074213;28;20535;-78
2021/05/18 07:40:47;;;;;;;9.63;8.60;;;13.80;99.90;;;;;;5074318;28;20396;-78
2021/05/18 07:43:17;;;;;;;10.13;9.13;;;13.60;99.90;;;;;;5072355;28;20543;-78
2021/05/18 07:45:49;;;;;;;8.83;7.90;;;13.70;99.90;;;;;;5072980;28;20186;-78
2021/05/18 07:48:30;;;;;;;9.50;8.50;;;13.90;99.90;;;;;;5089584;28;20629;-78
2021/05/18 08:07:05;;;;;;;8.97;7.43;;;14.10;99.90;;;;;;5093326;28;20473;-78
2021/05/18 08:09:34;;;;;;;9.10;7.63;;;14.10;99.90;;;;;;5079495;28;20421;-77
2021/05/18 08:12:00;;;;;;;8.80;7.80;;;14.30;99.90;;;;;;5073058;28;20676;-78
2021/05/18 08:14:26;;;;;;;8.80;7.17;;;14.20;99.90;;;;;;5073400;28;20436;-78
2021/05/18 08:17:06;;;;;;;7.77;6.30;;;13.90;99.90;;;;;;5072890;28;20194;-77
2021/05/18 08:47:49;;;;;;;3.90;3.60;;;12.50;99.90;;;;;;5071888;28;20551;-77
2021/05/18 09:42:01;;;;;;;5.30;4.80;;;12.60;99.90;;;;;;5071422;28;20677;-76
2021/05/18 10:36:14;;;;;;;8.20;5.20;;;14.50;99.90;;;;;;5076009;28;20430;-76
2021/05/18 10:38:46;;;;;;;6.23;4.40;;;14.80;99.90;;;;;;5090669;28;20420;-78
2021/05/18 10:41:17;;;;;;;8.03;4.63;;;14.90;99.90;;;;;;5090644;28;20709;-77
2021/05/18 10:43:54;;;;;;;5.27;4.73;;;14.40;99.90;;;;;;5090688;28;20453;-78
2021/05/18 10:46:22;;;;;;;7.03;5.00;;;14.10;99.90;;;;;;5088657;28;20442;-77
2021/05/18 10:48:55;;;;;;;9.20;4.70;;;13.60;99.90;;;;;;5086936;28;20430;-75
2021/05/18 10:51:25;;;;;;;4.77;4.10;;;13.40;99.90;;;;;;5102383;28;20427;-76
2021/05/18 10:54:29;;;;;;;6.23;4.40;;;13.30;99.90;;;;;;5111011;28;20945;-77
2021/05/18 10:56:55;;;;;;;5.53;4.67;;;13.10;99.90;;;;;;5110712;28;20750;-77
2021/05/18 10:59:31;;;;;;;6.67;5.13;;;13.30;99.90;;;;;;5110878;28;20475;-76
2021/05/18 11:02:09;;;;;;;5.47;5.00;;;13.50;99.90;;;;;;5110481;28;20167;-77
2021/05/18 11:04:40;;;;;;;6.60;5.30;;;13.60;99.90;;;;;;5110926;28;20812;-76
2021/05/18 11:07:08;;;;;;;6.67;6.07;;;13.60;99.90;;;;;;5110517;28;20446;-77
2021/05/18 11:09:34;;;;;;;7.93;4.70;;;13.90;99.90;;;;;;5110939;28;20456;-76
2021/05/18 11:12:13;;;;;;;5.20;4.70;;;13.80;99.90;;;;;;5085366;28;20458;-77
2021/05/18 11:14:43;;;;;;;5.23;4.73;;;13.70;99.90;;;;;;5088064;28;20197;-75
2021/05/18 11:17:11;;;;;;;6.10;5.00;;;13.70;99.90;;;;;;5090053;28;20815;-77
2021/05/18 11:19:51;;;;;;;5.10;4.53;;;13.60;99.90;;;;;;5091289;28;20478;-77
2021/05/18 11:23:17;;;;;;;6.63;5.53;;;13.60;99.90;;;;;;5093858;28;20400;-76
2021/05/18 11:25:02;;;;;;;7.40;5.87;;;13.70;99.90;;;;;;5093775;28;20419;-75
2021/05/18 11:27:29;;;;;;;6.57;5.77;;;13.60;99.90;;;;;;5093365;28;20599;-76
2021/05/18 11:29:54;;;;;;;9.93;5.37;;;14.00;99.90;;;;;;5093757;28;20166;-78
2021/05/18 11:32:20;;;;;;;6.43;5.67;;;14.50;99.90;;;;;;5093395;28;20391;-78
2021/05/18 11:34:58;;;;;;;7.53;5.20;;;14.50;99.90;;;;;;5093635;28;20206;-76
2021/05/18 11:37:25;;;;;;;6.90;4.87;;;15.30;99.90;;;;;;5093389;28;20174;-77
2021/05/18 11:40:11;;;;;;;6.60;4.83;;;15.60;99.90;;;;;;5093549;28;20411;-76
2021/05/18 11:42:37;;;;;;;5.00;4.27;;;15.60;99.90;;;;;;5093493;28;20482;-76
2021/05/18 11:45:05;;;;;;;5.53;4.63;;;16.00;99.90;;;;;;5093670;28;20525;-76
2021/05/18 11:47:31;;;;;;;8.40;5.90;;;15.70;99.90;;;;;;5091693;28;20194;-77
2021/05/18 11:49:56;;;;;;;8.77;5.93;;;15.90;99.90;;;;;;5093526;28;20914;-77
2021/05/18 11:52:22;;;;;;;6.30;5.70;;;16.40;99.90;;;;;;5088900;28;20167;-78
2021/05/18 11:54:47;;;;;;;5.37;4.87;;;16.30;99.90;;;;;;5093382;28;20188;-76
2021/05/18 11:57:13;;;;;;;9.83;6.03;;;16.40;99.90;;;;;;5093035;28;20173;-76
2021/05/18 11:59:38;;;;;;;7.27;5.80;;;15.80;99.90;;;;;;5093350;28;20358;-77
2021/05/18 12:02:06;;;;;;;10.60;5.50;;;15.70;99.90;;;;;;5093302;28;20189;-78
2021/05/18 12:04:36;;;;;;;5.10;4.40;;;15.70;99.90;;;;;;5093226;28;20162;-75
2021/05/18 12:07:08;;;;;;;6.20;4.70;;;15.70;99.90;;;;;;5093134;28;20477;-74
2021/05/18 12:09:38;;;;;;;5.10;4.10;;;15.90;99.90;;;;;;5093273;28;20518;-77
2021/05/18 12:12:08;;;;;;;6.23;4.23;;;15.70;99.90;;;;;;5093802;28;20430;-77
2021/05/18 12:14:42;;;;;;;5.30;4.17;;;15.70;99.90;;;;;;5086256;28;20429;-77
2021/05/18 12:17:08;;;;;;;4.67;4.17;;;15.70;99.90;;;;;;5072682;28;20414;-76
2021/05/18 12:19:38;;;;;;;10.30;5.17;;;16.30;99.90;;;;;;5072524;28;20507;-76
2021/05/18 12:22:03;;;;;;;7.77;4.90;;;16.20;99.90;;;;;;5072608;28;20169;-76
2021/05/18 12:24:30;;;;;;;6.10;4.00;;;16.20;99.90;;;;;;5072639;28;20915;-75
2021/05/18 12:27:02;;;;;;;5.77;4.77;;;16.40;99.90;;;;;;5078807;28;20257;-78
2021/05/18 12:29:29;;;;;;;6.43;4.43;;;16.40;99.90;;;;;;5078615;28;20448;-75
2021/05/18 12:32:14;;;;;;;5.80;4.43;;;16.40;99.90;;;;;;5072359;28;20411;-76
2021/05/18 12:34:40;;;;;;;5.70;4.53;;;16.40;99.90;;;;;;5072687;28;20910;-75
2021/05/18 12:37:06;;;;;;;6.03;3.73;;;16.40;99.90;;;;;;5070966;28;20489;-76
2021/05/18 12:39:32;;;;;;;4.93;3.53;;;16.30;99.90;;;;;;5074226;28;20222;-76
2021/05/18 12:42:01;;;;;;;4.80;3.80;;;15.90;99.90;;;;;;5092250;28;20218;-76
2021/05/18 12:44:32;;;;;;;5.00;3.60;;;15.70;99.90;;;;;;5091301;28;20754;-76
2021/05/18 12:47:06;;;;;;;3.30;2.90;;;16.50;99.90;;;;;;5104682;28;20493;-77
2021/05/18 12:49:40;;;;;;;3.93;3.23;;;16.60;99.90;;;;;;5092335;28;20422;-76
2021/05/18 12:52:07;;;;;;;3.63;2.97;;;15.90;99.90;;;;;;5092098;28;20416;-76
2021/05/18 12:54:45;;;;;;;4.90;3.17;;;16.00;99.90;;;;;;5090530;28;20532;-75
2021/05/18 12:57:14;;;;;;;5.13;2.73;;;15.70;99.90;;;;;;5091808;28;20408;-75
2021/05/18 12:59:59;;;;;;;3.27;2.97;;;15.50;99.90;;;;;;5092009;28;20507;-76
2021/05/18 13:02:34;;;;;;;4.80;2.97;;;16.00;99.90;;;;;;5091785;28;20423;-76
2021/05/18 13:05:05;;;;;;;4.90;3.30;;;15.60;99.90;;;;;;5092006;28;20474;-76
2021/05/18 13:07:31;;;;;;;4.03;3.57;;;15.40;99.90;;;;;;5091370;28;20462;-76
2021/05/18 13:10:28;;;;;;;3.37;2.83;;;15.30;99.90;;;;;;5091876;28;20410;-79
2021/05/18 13:13:01;;;;;;;4.63;3.10;;;15.40;99.90;;;;;;5072707;28;20174;-77
2021/05/18 13:15:27;;;;;;;2.90;2.67;;;15.10;99.90;;;;;;5071459;28;20404;-78
2021/05/18 13:17:55;;;;;;;4.53;3.43;;;15.20;99.90;;;;;;5070942;28;20415;-77
2021/05/18 13:20:21;;;;;;;7.13;3.10;;;15.20;99.90;;;;;;5071463;28;20428;-77
2021/05/18 13:22:51;;;;;;;6.53;3.73;;;15.30;99.90;;;;;;5070725;28;20429;-76
2021/05/18 13:28:03;;;;;;;4.27;3.10;;;15.50;99.90;;;;;;5091619;28;20478;-75
2021/05/18 13:30:30;;;;;;;6.97;4.17;;;15.50;99.90;;;;;;5091568;28;20393;-75
2021/05/18 13:32:56;;;;;;;6.60;3.60;;;15.80;99.90;;;;;;5091404;28;20400;-76
2021/05/18 13:35:24;;;;;;;3.87;3.03;;;15.70;99.90;;;;;;5091360;28;20409;-77
2021/05/18 13:37:50;;;;;;;4.43;2.97;;;16.10;99.90;;;;;;5090994;28;20873;-73
2021/05/18 13:40:17;;;;;;;5.10;3.00;;;16.00;99.90;;;;;;5090974;28;20416;-75
2021/05/18 13:42:43;;;;;;;4.30;3.77;;;16.20;99.90;;;;;;5090999;28;20159;-75
2021/05/18 13:45:09;;;;;;;3.77;3.00;;;16.10;99.90;;;;;;5091136;28;20453;-75
2021/05/18 13:47:35;;;;;;;4.47;3.20;;;16.00;99.90;;;;;;5090127;28;21049;-75
2021/05/18 13:50:01;;;;;;;2.97;2.20;;;16.40;99.90;;;;;;5091307;28;20485;-75
2021/05/18 13:52:27;;;;;;;4.10;3.17;;;16.80;99.90;;;;;;5091626;28;20170;-75
2021/05/18 13:54:53;;;;;;;7.10;3.23;;;16.70;99.90;;;;;;5091262;28;20422;-77
2021/05/18 13:57:19;;;;;;;5.77;2.90;;;16.80;99.90;;;;;;5091031;28;20215;-78
2021/05/18 13:59:45;;;;;;;5.27;2.80;;;16.50;99.90;;;;;;5091250;28;20685;-75
2021/05/18 14:02:10;;;;;;;3.33;2.77;;;16.50;99.90;;;;;;5091114;28;20484;-75
2021/05/18 14:04:36;;;;;;;3.13;2.10;;;16.60;99.90;;;;;;5091184;28;20164;-78
2021/05/18 14:07:51;;;;;;;4.77;2.80;;;16.70;99.90;;;;;;5090750;28;20199;-75
2021/05/18 14:10:17;;;;;;;3.90;2.90;;;16.90;99.90;;;;;;5091055;28;20175;-75
2021/05/18 14:12:42;;;;;;;4.63;4.23;;;16.90;99.90;;;;;;5091012;28;20780;-76
2021/05/18 14:15:09;;;;;;;6.40;2.90;;;16.70;99.90;;;;;;5091136;28;20621;-78
2021/05/18 14:17:34;;;;;;;3.67;2.30;;;16.70;99.90;;;;;;5090665;28;20247;-75
2021/05/18 14:20:00;;;;;;;3.97;2.93;;;16.70;99.90;;;;;;5091055;28;20954;-75
2021/05/18 14:22:26;;;;;;;3.73;3.00;;;16.40;99.90;;;;;;5089594;28;20179;-76
2021/05/18 14:24:57;;;;;;;4.07;3.00;;;16.30;99.90;;;;;;5091147;28;20168;-77
2021/05/18 14:27:22;;;;;;;3.03;2.00;;;16.40;99.90;;;;;;5090842;28;20394;-77
2021/05/18 14:29:48;;;;;;;2.00;1.60;;;16.60;99.90;;;;;;5091473;28;20437;-76
2021/05/18 14:32:14;;;;;;;2.50;1.70;;;16.80;99.90;;;;;;5090659;28;20160;-76
2021/05/18 14:34:41;;;;;;;4.00;2.60;;;16.70;99.90;;;;;;5091036;28;20163;-76
2021/05/18 14:37:07;;;;;;;2.27;2.07;;;16.80;99.90;;;;;;5090643;28;20419;-76
2021/05/18 14:45:03;;;;;;;2.50;2.30;;;16.30;99.90;;;;;;5090890;28;20594;-76
2021/05/18 14:47:36;;;;;;;4.67;2.03;;;16.10;99.90;;;;;;5100189;28;20966;-75
2021/05/18 14:55:32;;;;;;;2.57;1.90;;;16.60;99.90;;;;;;5093194;28;20509;-76
2021/05/18 14:57:57;;;;;;;2.77;1.70;;;16.60;99.90;;;;;;5093928;28;20439;-77
2021/05/18 15:00:23;;;;;;;2.53;1.90;;;16.80;99.90;;;;;;5093183;28;20507;-76
2021/05/18 15:02:48;;;;;;;3.93;2.13;;;16.80;99.90;;;;;;5094294;28;20210;-76
2021/05/18 15:05:16;;;;;;;3.67;2.17;;;16.80;99.90;;;;;;5094414;28;20183;-76
2021/05/18 15:07:42;;;;;;;1.97;1.73;;;16.80;99.90;;;;;;5094433;28;20351;-76
2021/05/18 15:10:08;;;;;;;3.30;1.80;;;16.50;99.90;;;;;;5094211;28;20398;-78
2021/05/18 15:12:34;;;;;;;2.50;2.20;;;16.50;99.90;;;;;;5094309;28;20397;-76
2021/05/18 15:14:59;;;;;;;2.73;2.37;;;16.80;99.90;;;;;;5092926;28;20467;-75
2021/05/18 15:17:25;;;;;;;3.40;2.07;;;16.50;99.90;;;;;;5093739;28;20550;-76
2021/05/18 15:19:52;;;;;;;2.77;2.13;;;16.60;99.90;;;;;;5094063;28;20249;-78
2021/05/18 15:22:18;;;;;;;2.93;2.40;;;16.50;99.90;;;;;;5093628;28;20171;-78
2021/05/18 15:24:44;;;;;;;4.43;1.67;;;16.50;99.90;;;;;;5089031;28;20516;-76
2021/05/18 15:27:10;;;;;;;2.90;1.90;;;16.50;99.90;;;;;;5093871;28;20297;-75
2021/05/18 15:29:36;;;;;;;2.63;2.23;;;16.40;99.90;;;;;;5093467;28;20179;-76
2021/05/18 15:32:02;;;;;;;3.30;1.97;;;16.50;99.90;;;;;;5075210;28;20508;-76
2021/05/18 15:34:27;;;;;;;3.10;2.17;;;16.60;99.90;;;;;;5073983;28;20845;-75
2021/05/18 15:36:55;;;;;;;2.27;2.07;;;16.30;99.90;;;;;;5073328;28;20429;-76
2021/05/18 15:39:21;;;;;;;4.77;2.37;;;16.30;99.90;;;;;;5074000;28;20237;-78
2021/05/18 15:41:46;;;;;;;3.40;2.50;;;16.00;99.90;;;;;;5093189;28;20415;-76
2021/05/18 15:44:12;;;;;;;4.13;2.43;;;16.10;99.90;;;;;;5092269;28;20171;-77
2021/05/18 15:46:38;;;;;;;2.50;1.87;;;16.10;99.90;;;;;;5091776;28;20195;-76
2021/05/18 15:49:04;;;;;;;2.73;1.67;;;16.20;99.90;;;;;;5093692;28;20429;-77
2021/05/18 15:51:30;;;;;;;2.60;2.27;;;16.00;99.90;;;;;;5093321;28;20676;-77
2021/05/18 15:53:56;;;;;;;5.90;3.00;;;15.70;99.90;;;;;;5093414;28;20169;-76
2021/05/18 15:56:22;;;;;;;3.13;2.10;;;15.50;99.90;;;;;;5091596;28;20424;-78
2021/05/18 15:58:48;;;;;;;3.00;1.90;;;15.80;99.90;;;;;;5093376;28;20183;-77
2021/05/18 16:01:13;;;;;;;2.70;2.37;;;16.10;99.90;;;;;;5093627;28;20412;-78
2021/05/18 16:03:39;;;;;;;3.90;2.33;;;16.10;99.90;;;;;;5093246;28;20197;-77
2021/05/18 16:06:04;;;;;;;2.93;1.97;;;16.00;99.90;;;;;;5092321;28;20683;-78
2021/05/18 16:10:56;;;;;;;2.10;1.73;;;16.20;99.90;;;;;;5093347;28;20651;-79
2021/05/18 16:13:22;;;;;;;3.23;2.33;;;16.00;99.90;;;;;;5093161;28;20594;-77
2021/05/18 16:15:48;;;;;;;3.60;2.60;;;15.70;99.90;;;;;;5093148;28;20399;-77
2021/05/18 16:18:13;;;;;;;2.60;2.13;;;15.70;99.90;;;;;;5092703;28;20492;-77
2021/05/18 16:20:40;;;;;;;4.63;2.03;;;15.90;99.90;;;;;;5092943;28;20493;-77
2021/05/18 16:23:06;;;;;;;2.80;1.80;;;15.80;99.90;;;;;;5093290;28;20198;-78
2021/05/18 16:25:32;;;;;;;2.23;1.87;;;15.60;99.90;;;;;;5092828;28;20445;-77
2021/05/18 16:27:57;;;;;;;2.40;2.20;;;15.70;99.90;;;;;;5092562;28;20242;-77
2021/05/18 16:30:23;;;;;;;2.00;1.80;;;15.60;99.90;;;;;;5092959;28;20614;-77
2021/05/18 16:32:49;;;;;;;2.57;1.70;;;15.80;99.90;;;;;;5092499;28;20223;-77
2021/05/18 16:35:14;;;;;;;1.90;1.57;;;15.40;99.90;;;;;;5092487;28;20399;-77
2021/05/18 16:37:40;;;;;;;5.03;1.80;;;15.20;99.90;;;;;;5090872;28;20209;-77
2021/05/18 16:40:07;;;;;;;1.93;1.70;;;15.10;99.90;;;;;;5092220;28;20178;-77
2021/05/18 16:42:36;;;;;;;2.20;2.07;;;15.20;99.90;;;;;;5092225;28;20162;-79
2021/05/18 16:45:04;;;;;;;3.27;2.13;;;15.20;99.90;;;;;;5092692;28;20920;-76
2021/05/18 16:47:30;;;;;;;2.60;2.33;;;15.50;99.90;;;;;;5101757;28;20449;-79
2021/05/18 16:49:55;;;;;;;2.30;1.77;;;15.40;99.90;;;;;;5112565;28;20406;-76
2021/05/18 16:52:21;;;;;;;3.00;1.90;;;15.60;99.90;;;;;;5111298;28;20165;-76
2021/05/18 16:54:46;;;;;;;2.33;1.90;;;15.20;99.90;;;;;;5112788;28;20554;-76
2021/05/18 16:57:12;;;;;;;1.93;1.80;;;15.30;99.90;;;;;;5112470;28;20172;-76
2021/05/18 16:59:37;;;;;;;2.57;2.37;;;15.20;99.90;;;;;;5112521;28;20190;-77
2021/05/18 17:02:03;;;;;;;2.43;1.70;;;15.40;99.90;;;;;;5112662;28;20171;-79
2021/05/18 17:04:29;;;;;;;3.73;1.80;;;15.40;99.90;;;;;;5112593;28;20549;-78
2021/05/18 17:06:55;;;;;;;2.87;1.80;;;15.50;99.90;;;;;;5112284;28;20455;-76
2021/05/18 17:09:20;;;;;;;2.57;1.97;;;15.40;99.90;;;;;;5112456;28;20280;-76
2021/05/18 17:11:46;;;;;;;3.73;2.30;;;15.30;99.90;;;;;;5112271;28;20765;-75
2021/05/18 17:14:12;;;;;;;2.50;2.30;;;15.30;99.90;;;;;;5112809;28;20181;-76
2021/05/18 17:16:39;;;;;;;2.23;1.80;;;15.10;99.90;;;;;;5111863;28;20528;-76
2021/05/18 17:19:05;;;;;;;2.10;1.80;;;15.00;99.90;;;;;;5111533;28;20422;-76
2021/05/18 17:21:30;;;;;;;3.00;1.80;;;15.20;99.90;;;;;;5112163;28;20402;-76
2021/05/18 17:23:56;;;;;;;2.60;1.87;;;15.20;99.90;;;;;;5112005;28;20780;-76
2021/05/18 17:26:22;;;;;;;1.83;1.67;;;15.20;99.90;;;;;;5073617;28;20246;-77
2021/05/18 17:28:48;;;;;;;3.10;2.50;;;15.20;99.90;;;;;;5071001;28;20194;-76
2021/05/18 17:31:15;;;;;;;4.33;1.80;;;15.20;99.90;;;;;;5079998;28;20161;-76
2021/05/18 17:33:41;;;;;;;6.33;2.10;;;15.20;99.90;;;;;;5091679;28;20404;-77
2021/05/18 17:36:07;;;;;;;2.37;2.00;;;15.10;99.90;;;;;;5091643;28;20410;-77
2021/05/18 17:38:33;;;;;;;3.30;2.80;;;14.90;99.90;;;;;;5091151;28;20791;-77
2021/05/18 17:41:01;;;;;;;2.23;1.83;;;14.90;99.90;;;;;;5091250;28;20507;-77
2021/05/18 17:43:26;;;;;;;3.60;2.30;;;14.80;99.90;;;;;;5084700;28;20174;-77